createdAt,value
2019-04-03T00:00:10.065Z,19.30
2019-04-03T00:01:44.910Z,18.37
2019-04-03T00:03:19.554Z,19.83
2019-04-03T00:04:54.002Z,21.90
2019-04-03T00:06:28.450Z,18.07
2019-04-03T00:08:02.912Z,18.90
2019-04-03T00:09:37.365Z,20.90
2019-04-03T00:11:12.232Z,18.13
2019-04-03T00:12:47.149Z,20.27
2019-04-03T00:14:21.689Z,19.73
2019-04-03T00:15:56.188Z,20.60
2019-04-03T00:17:30.556Z,17.73
2019-04-03T00:19:04.998Z,20.80
2019-04-03T00:20:39.585Z,19.73
2019-04-03T00:22:13.998Z,16.27
2019-04-03T00:23:48.710Z,23.37
2019-04-03T00:25:23.334Z,19.77
2019-04-03T00:26:57.818Z,16.83
2019-04-03T00:28:32.314Z,19.17
2019-04-03T00:30:07.847Z,21.33
2019-04-03T00:31:42.266Z,18.73
2019-04-03T00:33:16.803Z,20.27
2019-04-03T00:34:51.809Z,19.23
2019-04-03T00:36:27.355Z,18.77
2019-04-03T00:38:01.762Z,19.23
2019-04-03T00:39:36.438Z,23.20
2019-04-03T00:41:10.893Z,18.30
2019-04-03T00:42:45.274Z,18.60
2019-04-03T00:44:19.722Z,16.60
2019-04-03T00:45:55.104Z,18.17
2019-04-03T00:47:29.953Z,21.63
2019-04-03T00:49:04.981Z,20.50
2019-04-03T00:50:39.531Z,19.67
2019-04-03T00:52:14.072Z,20.53
2019-04-03T00:53:48.521Z,21.00
2019-04-03T00:55:23.006Z,18.73
2019-04-03T00:56:57.382Z,18.57
2019-04-03T00:58:42.950Z,19.63
2019-04-03T01:00:17.920Z,19.83
2019-04-03T01:01:52.546Z,21.80
2019-04-03T01:03:28.243Z,24.30
2019-04-03T01:05:03.574Z,20.40
2019-04-03T01:06:37.947Z,20.13
2019-04-03T01:08:12.318Z,19.47
2019-04-03T01:09:46.700Z,19.70
2019-04-03T01:11:21.257Z,20.17
2019-04-03T01:12:56.029Z,23.35
2019-04-03T01:14:31.583Z,21.37
2019-04-03T01:16:07.125Z,20.37
2019-04-03T01:17:41.888Z,23.50
2019-04-03T01:19:16.486Z,19.70
2019-04-03T01:20:51.378Z,22.23
2019-04-03T01:22:25.821Z,19.93
2019-04-03T01:24:00.258Z,21.33
2019-04-03T01:25:34.630Z,18.63
2019-04-03T01:27:11.186Z,19.13
2019-04-03T01:28:45.353Z,21.40
2019-04-03T01:30:19.762Z,20.93
2019-04-03T01:31:54.154Z,20.87
2019-04-03T01:33:28.544Z,20.72
2019-04-03T01:35:03.187Z,20.00
2019-04-03T01:36:37.591Z,22.95
2019-04-03T01:38:12.692Z,20.80
2019-04-03T01:39:47.053Z,22.47
2019-04-03T01:41:21.655Z,19.57
2019-04-03T01:42:56.192Z,19.92
2019-04-03T01:44:30.557Z,18.30
2019-04-03T01:46:05.284Z,18.70
2019-04-03T01:47:39.931Z,21.62
2019-04-03T01:49:14.411Z,20.43
2019-04-03T01:50:49.283Z,19.87
2019-04-03T01:52:23.655Z,21.87
2019-04-03T01:53:58.466Z,21.57
2019-04-03T01:55:34.731Z,20.20
2019-04-03T01:57:09.403Z,21.63
2019-04-03T01:58:43.789Z,20.60
2019-04-03T02:00:18.503Z,21.17
2019-04-03T02:01:53.157Z,17.83
2019-04-03T02:03:27.539Z,21.20
2019-04-03T02:05:02.166Z,22.13
2019-04-03T02:06:36.572Z,21.73
2019-04-03T02:08:11.047Z,19.33
2019-04-03T02:09:46.610Z,18.63
2019-04-03T02:11:21.540Z,17.07
2019-04-03T02:12:56.173Z,19.97
2019-04-03T02:14:31.025Z,21.80
2019-04-03T02:16:05.893Z,21.97
2019-04-03T02:17:40.284Z,21.07
2019-04-03T02:19:14.661Z,19.27
2019-04-03T02:20:49.181Z,21.60
2019-04-03T02:22:23.545Z,22.13
2019-04-03T02:23:58.161Z,21.33
2019-04-03T02:25:32.622Z,20.92
2019-04-03T02:27:06.990Z,21.70
2019-04-03T02:28:41.614Z,23.05
2019-04-03T02:30:16.249Z,21.55
2019-04-03T02:31:52.733Z,20.10
2019-04-03T02:33:28.982Z,17.75
2019-04-03T02:35:06.809Z,22.40
2019-04-03T02:36:41.122Z,19.98
2019-04-03T02:38:15.909Z,23.60
2019-04-03T02:39:50.411Z,21.90
2019-04-03T02:41:24.772Z,23.38
2019-04-03T02:42:59.819Z,18.75
2019-04-03T02:44:34.863Z,20.35
2019-04-03T02:46:09.719Z,19.60
2019-04-03T02:48:05.596Z,21.15
2019-04-03T02:49:42.707Z,22.20
2019-04-03T02:51:17.023Z,20.05
2019-04-03T02:52:56.676Z,20.43
2019-04-03T02:54:34.689Z,20.57
2019-04-03T02:56:07.495Z,19.35
2019-04-03T02:57:44.216Z,20.95
2019-04-03T02:59:19.313Z,22.50
2019-04-03T03:00:54.431Z,18.82
2019-04-03T03:02:30.193Z,20.80
2019-04-03T03:04:05.323Z,18.95
2019-04-03T03:05:39.935Z,20.85
2019-04-03T03:07:14.430Z,21.93
2019-04-03T03:08:49.191Z,19.47
2019-04-03T03:10:23.966Z,20.80
2019-04-03T03:11:59.674Z,19.33
2019-04-03T03:13:35.237Z,22.93
2019-04-03T03:15:11.975Z,20.48
2019-04-03T03:16:49.302Z,16.80
2019-04-03T03:18:26.363Z,20.70
2019-04-03T03:20:06.646Z,19.03
2019-04-03T03:21:40.087Z,23.45
2019-04-03T03:23:16.792Z,21.00
2019-04-03T03:24:51.907Z,20.32
2019-04-03T03:26:26.457Z,22.73
2019-04-03T03:28:01.522Z,20.10
2019-04-03T03:29:36.659Z,18.27
2019-04-03T03:31:12.765Z,21.02
2019-04-03T03:32:48.443Z,18.67
2019-04-03T03:34:45.020Z,19.52
2019-04-03T03:36:01.281Z,20.17
2019-04-03T03:37:37.246Z,20.82
2019-04-03T03:39:12.808Z,22.55
2019-04-03T03:40:49.272Z,22.62
2019-04-03T03:42:27.937Z,19.35
2019-04-03T03:44:02.559Z,19.95
2019-04-03T03:45:37.592Z,21.50
2019-04-03T03:47:12.929Z,19.60
2019-04-03T03:48:48.157Z,21.93
2019-04-03T03:50:27.678Z,23.87
2019-04-03T03:52:05.222Z,22.52
2019-04-03T03:53:43.936Z,23.42
2019-04-03T03:55:17.042Z,22.98
2019-04-03T03:56:53.371Z,18.27
2019-04-03T03:58:29.468Z,21.35
2019-04-03T04:00:06.267Z,22.75
2019-04-03T04:01:41.275Z,20.12
2019-04-03T04:03:16.300Z,22.37
2019-04-03T04:04:51.519Z,23.27
2019-04-03T04:06:29.118Z,24.20
2019-04-03T04:08:04.446Z,23.27
2019-04-03T04:09:39.558Z,23.18
2019-04-03T04:11:14.587Z,25.30
2019-04-03T04:12:49.966Z,24.40
2019-04-03T04:14:25.192Z,25.05
2019-04-03T04:16:02.130Z,25.23
2019-04-03T04:17:36.172Z,22.17
2019-04-03T04:19:10.959Z,25.52
2019-04-03T04:20:45.848Z,21.70
2019-04-03T04:22:20.433Z,24.63
2019-04-03T04:23:55.881Z,23.30
2019-04-03T04:25:31.177Z,20.75
2019-04-03T04:27:05.688Z,28.50
2019-04-03T04:28:41.529Z,22.40
2019-04-03T04:30:18.990Z,25.05
2019-04-03T04:31:53.578Z,23.50
2019-04-03T04:33:27.985Z,25.85
2019-04-03T04:35:02.390Z,25.23
2019-04-03T04:36:36.904Z,25.52
2019-04-03T04:38:11.346Z,21.55
2019-04-03T04:39:45.750Z,23.18
2019-04-03T04:41:20.428Z,28.57
2019-04-03T04:42:55.277Z,24.00
2019-04-03T04:44:29.657Z,26.80
2019-04-03T04:46:04.571Z,26.70
2019-04-03T04:47:39.194Z,26.95
2019-04-03T04:49:13.909Z,29.50
2019-04-03T04:50:48.449Z,23.98
2019-04-03T04:52:22.940Z,24.25
2019-04-03T04:53:57.792Z,24.92
2019-04-03T04:55:35.103Z,21.55
2019-04-03T04:57:10.086Z,25.50
2019-04-03T04:58:44.509Z,25.82
2019-04-03T05:00:18.985Z,22.52
2019-04-03T05:01:54.334Z,28.35
2019-04-03T05:03:29.446Z,22.93
2019-04-03T05:05:04.559Z,22.05
2019-04-03T05:06:39.375Z,23.20
2019-04-03T05:08:13.787Z,22.48
2019-04-03T05:09:48.149Z,23.20
2019-04-03T05:11:22.860Z,22.40
2019-04-03T05:12:57.290Z,25.17
2019-04-03T05:14:32.227Z,26.25
2019-04-03T05:16:07.680Z,22.13
2019-04-03T05:17:42.491Z,25.55
2019-04-03T05:19:19.319Z,32.70
2019-04-03T05:20:53.630Z,24.15
2019-04-03T05:22:28.771Z,27.82
2019-04-03T05:24:11.779Z,25.25
2019-04-03T05:25:39.991Z,21.30
2019-04-03T05:27:14.835Z,23.30
2019-04-03T05:28:57.061Z,21.40
2019-04-03T05:30:32.554Z,26.27
2019-04-03T05:32:09.532Z,21.60
2019-04-03T05:33:43.141Z,25.23
2019-04-03T05:35:17.818Z,27.07
2019-04-03T05:36:52.186Z,25.03
2019-04-03T05:38:26.596Z,25.20
2019-04-03T05:40:01.230Z,24.75
2019-04-03T05:41:36.171Z,23.10
2019-04-03T05:43:10.723Z,28.70
2019-04-03T05:44:45.106Z,21.80
2019-04-03T05:46:19.948Z,26.63
2019-04-03T05:47:54.422Z,25.00
2019-04-03T05:49:28.799Z,26.87
2019-04-03T05:51:03.744Z,23.13
2019-04-03T05:52:38.433Z,26.97
2019-04-03T05:54:14.652Z,24.97
2019-04-03T05:55:49.171Z,23.17
2019-04-03T05:57:23.890Z,25.00
2019-04-03T05:59:01.321Z,22.77
2019-04-03T06:00:37.511Z,27.23
2019-04-03T06:02:16.175Z,20.30
2019-04-03T06:03:47.023Z,25.00
2019-04-03T06:05:21.796Z,20.70
2019-04-03T06:06:56.700Z,20.63
2019-04-03T06:08:33.950Z,23.93
2019-04-03T06:10:07.767Z,19.33
2019-04-03T06:11:42.245Z,20.20
2019-04-03T06:13:17.581Z,18.53
2019-04-03T06:14:52.322Z,17.90
2019-04-03T06:16:26.695Z,17.80
2019-04-03T06:18:01.145Z,19.00
2019-04-03T06:19:39.189Z,21.83
2019-04-03T06:21:14.488Z,18.37
2019-04-03T06:22:49.885Z,20.33
2019-04-03T06:24:25.220Z,18.40
2019-04-03T06:26:02.175Z,18.97
2019-04-03T06:27:35.735Z,18.60
2019-04-03T06:29:10.221Z,17.93
2019-04-03T06:30:45.106Z,16.73
2019-04-03T06:32:19.934Z,22.23
2019-04-03T06:33:55.002Z,19.47
2019-04-03T06:35:29.857Z,24.07
2019-04-03T06:37:04.807Z,19.60
2019-04-03T06:38:39.846Z,20.47
2019-04-03T06:40:15.377Z,18.70
2019-04-03T06:41:50.309Z,19.87
2019-04-03T06:43:25.085Z,18.90
2019-04-03T06:45:00.613Z,19.27
2019-04-03T06:46:35.595Z,20.67
2019-04-03T06:48:11.076Z,19.07
2019-04-03T06:49:45.859Z,17.37
2019-04-03T06:51:20.678Z,21.33
2019-04-03T06:52:55.476Z,17.63
2019-04-03T06:54:31.985Z,16.60
2019-04-03T06:56:08.691Z,16.93
2019-04-03T06:57:45.874Z,19.10
2019-04-03T06:59:19.942Z,17.23
2019-04-03T07:00:55.468Z,19.33
2019-04-03T07:02:32.254Z,18.60
2019-04-03T07:04:07.842Z,18.30
2019-04-03T07:05:42.958Z,21.17
2019-04-03T07:07:31.738Z,16.80
2019-04-03T07:08:55.253Z,22.27
2019-04-03T07:10:30.099Z,17.40
2019-04-03T07:12:04.876Z,20.97
2019-04-03T07:13:39.684Z,18.93
2019-04-03T07:15:14.757Z,15.97
2019-04-03T07:16:49.832Z,18.57
2019-04-03T07:18:24.864Z,16.80
2019-04-03T07:20:12.029Z,15.80
2019-04-03T07:21:36.142Z,16.37
2019-04-03T07:23:11.021Z,16.23
2019-04-03T07:24:46.055Z,17.33
2019-04-03T07:26:20.870Z,16.93
2019-04-03T07:27:56.095Z,18.03
2019-04-03T07:29:30.849Z,16.57
2019-04-03T07:31:05.743Z,20.30
2019-04-03T07:32:40.619Z,15.80
2019-04-03T07:34:15.659Z,15.30
2019-04-03T07:35:50.483Z,17.23
2019-04-03T07:37:25.273Z,16.87
2019-04-03T07:39:00.375Z,18.43
2019-04-03T07:40:35.413Z,15.77
2019-04-03T07:42:10.603Z,17.87
2019-04-03T07:43:45.389Z,18.00
2019-04-03T07:45:20.183Z,16.73
2019-04-03T07:46:55.711Z,15.73
2019-04-03T07:48:33.011Z,16.67
2019-04-03T07:50:10.298Z,18.67
2019-04-03T07:51:45.414Z,20.30
2019-04-03T07:53:20.507Z,14.87
2019-04-03T07:54:56.992Z,13.83
2019-04-03T07:56:32.309Z,15.93
2019-04-03T07:58:07.307Z,19.10
2019-04-03T07:59:42.397Z,16.10
2019-04-03T08:01:18.819Z,16.60
2019-04-03T08:02:53.759Z,18.80
2019-04-03T08:04:28.556Z,14.90
2019-04-03T08:06:04.272Z,18.20
2019-04-03T08:07:39.355Z,14.93
2019-04-03T08:09:14.168Z,16.07
2019-04-03T08:10:49.039Z,15.63
2019-04-03T08:12:23.896Z,18.33
2019-04-03T08:13:58.729Z,13.00
2019-04-03T08:15:33.710Z,15.80
2019-04-03T08:17:08.974Z,17.37
2019-04-03T08:18:43.958Z,16.90
2019-04-03T08:20:20.114Z,17.53
2019-04-03T08:21:55.356Z,17.50
2019-04-03T08:23:30.396Z,15.47
2019-04-03T08:25:06.532Z,19.17
2019-04-03T08:26:41.563Z,16.77
2019-04-03T08:28:16.344Z,14.53
2019-04-03T08:29:51.142Z,17.33
2019-04-03T08:31:25.945Z,17.20
2019-04-03T08:33:00.749Z,16.17
2019-04-03T08:34:35.802Z,18.47
2019-04-03T08:36:22.590Z,17.87
2019-04-03T08:37:48.992Z,17.23
2019-04-03T08:39:24.092Z,16.93
2019-04-03T08:40:59.360Z,16.83
2019-04-03T08:42:34.224Z,17.50
2019-04-03T08:44:09.360Z,17.47
2019-04-03T08:45:44.143Z,17.60
2019-04-03T08:47:19.476Z,17.33
2019-04-03T08:48:55.462Z,18.20
2019-04-03T08:50:31.193Z,14.77
2019-04-03T08:52:06.214Z,16.47
2019-04-03T08:53:41.219Z,17.00
2019-04-03T08:55:16.445Z,14.27
2019-04-03T08:56:51.808Z,17.77
2019-04-03T08:58:27.740Z,18.70
2019-04-03T09:00:02.831Z,15.33
2019-04-03T09:01:37.707Z,18.63
2019-04-03T09:03:14.570Z,19.07
2019-04-03T09:04:49.776Z,17.77
2019-04-03T09:06:24.901Z,17.83
2019-04-03T09:07:59.960Z,16.20
2019-04-03T09:09:35.699Z,19.20
2019-04-03T09:11:10.984Z,16.93
2019-04-03T09:12:46.042Z,16.13
2019-04-03T09:14:20.841Z,21.00
2019-04-03T09:15:58.620Z,17.77
2019-04-03T09:17:34.119Z,18.23
2019-04-03T09:19:10.150Z,21.77
2019-04-03T09:20:45.616Z,16.20
2019-04-03T09:22:21.534Z,15.53
2019-04-03T09:23:58.331Z,16.17
2019-04-03T09:25:33.755Z,18.43
2019-04-03T09:27:09.812Z,15.90
2019-04-03T09:28:45.023Z,14.33
2019-04-03T09:30:20.570Z,15.33
2019-04-03T09:31:56.591Z,14.77
2019-04-03T09:33:31.703Z,15.90
2019-04-03T09:35:09.387Z,17.30
2019-04-03T09:36:44.248Z,15.23
2019-04-03T09:38:19.633Z,17.07
2019-04-03T09:39:54.935Z,14.03
2019-04-03T09:41:30.085Z,20.27
2019-04-03T09:43:05.234Z,13.17
2019-04-03T09:44:40.301Z,17.37
2019-04-03T09:46:15.084Z,17.90
2019-04-03T09:47:50.063Z,19.90
2019-04-03T09:49:24.839Z,20.37
2019-04-03T09:51:00.158Z,19.77
2019-04-03T09:52:42.431Z,17.33
2019-04-03T09:54:11.575Z,16.57
2019-04-03T09:55:46.709Z,19.00
2019-04-03T09:57:21.469Z,16.47
2019-04-03T09:58:57.093Z,16.80
2019-04-03T10:00:32.116Z,18.43
2019-04-03T10:02:07.057Z,17.17
2019-04-03T10:03:42.100Z,18.73
2019-04-03T10:05:17.569Z,20.03
2019-04-03T10:06:52.856Z,15.80
2019-04-03T10:08:27.623Z,15.83
2019-04-03T10:10:02.704Z,17.30
2019-04-03T10:11:39.205Z,17.07
2019-04-03T10:13:14.459Z,18.53
2019-04-03T10:14:49.628Z,18.67
2019-04-03T10:16:24.666Z,20.50
2019-04-03T10:17:59.804Z,16.37
2019-04-03T10:19:34.692Z,18.13
2019-04-03T10:21:09.902Z,19.23
2019-04-03T10:22:45.259Z,17.60
2019-04-03T10:24:20.404Z,18.83
2019-04-03T10:25:56.792Z,22.60
2019-04-03T10:27:31.839Z,19.77
2019-04-03T10:29:07.062Z,18.40
2019-04-03T10:30:42.071Z,18.77
2019-04-03T10:32:17.029Z,20.13
2019-04-03T10:33:52.345Z,17.53
2019-04-03T10:35:27.474Z,16.07
2019-04-03T10:37:02.542Z,15.80
2019-04-03T10:38:37.624Z,17.57
2019-04-03T10:40:15.571Z,19.37
2019-04-03T10:41:50.665Z,16.97
2019-04-03T10:43:25.886Z,17.83
2019-04-03T10:45:00.756Z,16.77
2019-04-03T10:46:35.863Z,14.07
2019-04-03T10:48:10.651Z,15.27
2019-04-03T10:49:46.068Z,15.70
2019-04-03T10:51:21.185Z,16.07
2019-04-03T10:52:55.995Z,18.40
2019-04-03T10:54:30.935Z,17.70
2019-04-03T10:56:06.494Z,17.20
2019-04-03T10:57:41.779Z,15.37
2019-04-03T10:59:18.459Z,14.77
2019-04-03T11:00:53.437Z,15.30
2019-04-03T11:02:28.667Z,15.63
2019-04-03T11:04:03.503Z,17.40
2019-04-03T11:05:38.636Z,17.07
2019-04-03T11:07:13.945Z,16.70
2019-04-03T11:08:48.974Z,16.67
2019-04-03T11:10:25.077Z,17.40
2019-04-03T11:12:01.310Z,16.23
2019-04-03T11:13:36.521Z,22.17
2019-04-03T11:15:12.709Z,14.77
2019-04-03T11:16:47.914Z,14.03
2019-04-03T11:18:23.052Z,16.43
2019-04-03T11:19:57.845Z,14.40
2019-04-03T11:21:32.622Z,18.30
2019-04-03T11:23:08.490Z,14.47
2019-04-03T11:24:44.063Z,13.00
2019-04-03T11:26:21.595Z,13.23
2019-04-03T11:27:56.215Z,15.73
2019-04-03T11:29:31.717Z,14.30
2019-04-03T11:31:06.584Z,18.57
2019-04-03T11:32:42.126Z,14.57
2019-04-03T11:34:18.535Z,15.40
2019-04-03T11:35:54.159Z,13.73
2019-04-03T11:37:32.138Z,13.93
2019-04-03T11:39:14.937Z,14.23
2019-04-03T11:40:45.687Z,15.17
2019-04-03T11:42:24.535Z,15.47
2019-04-03T11:43:57.526Z,14.80
2019-04-03T11:45:32.651Z,16.90
2019-04-03T11:47:08.209Z,15.10
2019-04-03T11:48:43.926Z,15.67
2019-04-03T11:50:23.879Z,14.17
2019-04-03T11:51:58.968Z,14.43
2019-04-03T11:53:35.578Z,15.57
2019-04-03T11:55:11.724Z,13.67
2019-04-03T11:56:46.810Z,15.80
2019-04-03T11:58:22.434Z,16.23
2019-04-03T11:59:57.670Z,15.87
2019-04-03T12:01:33.105Z,15.47
2019-04-03T12:03:10.715Z,15.77
2019-04-03T12:04:44.658Z,14.57
2019-04-03T12:06:21.060Z,16.53
2019-04-03T12:07:57.347Z,14.17
2019-04-03T12:09:32.585Z,18.13
2019-04-03T12:11:07.770Z,14.57
2019-04-03T12:12:42.885Z,15.03
2019-04-03T12:14:18.693Z,14.93
2019-04-03T12:15:54.560Z,14.50
2019-04-03T12:17:30.880Z,17.33
2019-04-03T12:19:06.454Z,16.40
2019-04-03T12:20:44.781Z,18.13
2019-04-03T12:22:18.191Z,14.20
2019-04-03T12:23:52.983Z,15.00
2019-04-03T12:25:27.769Z,19.33
2019-04-03T12:27:02.784Z,16.20
2019-04-03T12:28:37.806Z,12.63
2019-04-03T12:30:13.120Z,13.80
2019-04-03T12:31:48.412Z,14.93
2019-04-03T12:33:23.304Z,15.27
2019-04-03T12:34:58.101Z,16.73
2019-04-03T12:36:32.900Z,13.63
2019-04-03T12:38:07.994Z,13.83
2019-04-03T12:39:43.113Z,13.77
2019-04-03T12:41:17.910Z,13.60
2019-04-03T12:42:52.695Z,16.70
2019-04-03T12:44:27.676Z,14.47
2019-04-03T12:46:03.261Z,18.97
2019-04-03T12:47:39.263Z,14.83
2019-04-03T12:49:14.240Z,17.80
2019-04-03T12:50:49.367Z,15.10
2019-04-03T12:52:24.763Z,15.27
2019-04-03T12:53:59.780Z,16.60
2019-04-03T12:55:34.944Z,15.07
2019-04-03T12:57:10.072Z,16.60
2019-04-03T12:58:45.234Z,13.80
2019-04-03T13:00:22.752Z,15.90
2019-04-03T13:01:57.812Z,15.47
2019-04-03T13:03:35.690Z,15.33
2019-04-03T13:05:10.076Z,14.20
2019-04-03T13:06:44.845Z,13.80
2019-04-03T13:08:21.305Z,15.97
2019-04-03T13:09:56.871Z,14.30
2019-04-03T13:11:33.558Z,13.43
2019-04-03T13:13:08.451Z,17.40
2019-04-03T13:14:43.945Z,14.53
2019-04-03T13:16:21.213Z,14.10
2019-04-03T13:17:55.652Z,16.17
2019-04-03T13:19:30.760Z,13.27
2019-04-03T13:21:06.285Z,15.37
2019-04-03T13:22:43.693Z,15.17
2019-04-03T13:24:19.161Z,16.63
2019-04-03T13:25:54.573Z,14.33
2019-04-03T13:27:31.794Z,15.43
2019-04-03T13:29:08.182Z,17.47
2019-04-03T13:30:44.101Z,13.03
2019-04-03T13:32:22.178Z,15.63
2019-04-03T13:33:56.543Z,14.87
2019-04-03T13:35:31.962Z,16.03
2019-04-03T13:37:06.974Z,16.30
2019-04-03T13:38:41.788Z,14.80
2019-04-03T13:40:16.827Z,16.67
2019-04-03T13:41:51.835Z,17.77
2019-04-03T13:43:26.859Z,13.97
2019-04-03T13:45:01.655Z,17.53
2019-04-03T13:46:37.446Z,15.83
2019-04-03T13:48:13.441Z,14.57
2019-04-03T13:49:50.174Z,12.70
2019-04-03T13:51:26.741Z,17.03
2019-04-03T13:53:02.594Z,13.43
2019-04-03T13:54:37.830Z,15.47
2019-04-03T13:56:12.857Z,14.23
2019-04-03T13:57:49.415Z,15.47
2019-04-03T13:59:25.827Z,15.97
2019-04-03T14:01:02.988Z,12.60
2019-04-03T14:02:37.457Z,15.07
2019-04-03T14:04:12.673Z,13.60
2019-04-03T14:05:47.897Z,14.70
2019-04-03T14:07:23.086Z,12.77
2019-04-03T14:08:58.531Z,15.27
2019-04-03T14:10:33.491Z,13.30
2019-04-03T14:12:08.833Z,13.03
2019-04-03T14:13:44.440Z,12.80
2019-04-03T14:15:21.163Z,13.10
2019-04-03T14:16:56.393Z,13.40
2019-04-03T14:18:31.441Z,13.43
2019-04-03T14:20:08.647Z,12.73
2019-04-03T14:21:44.067Z,14.33
2019-04-03T14:23:19.323Z,15.07
2019-04-03T14:24:54.100Z,11.80
2019-04-03T14:26:28.891Z,14.77
2019-04-03T14:28:04.080Z,13.10
2019-04-03T14:29:39.693Z,15.10
2019-04-03T14:31:15.279Z,12.47
2019-04-03T14:32:53.399Z,15.80
2019-04-03T14:34:30.325Z,13.43
2019-04-03T14:36:04.849Z,15.77
2019-04-03T14:37:39.839Z,12.80
2019-04-03T14:39:14.603Z,12.77
2019-04-03T14:40:49.411Z,15.50
2019-04-03T14:42:26.443Z,14.73
2019-04-03T14:44:02.925Z,15.50
2019-04-03T14:45:38.784Z,14.27
2019-04-03T14:47:14.144Z,11.90
2019-04-03T14:48:49.186Z,13.57
2019-04-03T14:50:24.069Z,15.23
2019-04-03T14:51:59.423Z,13.23
2019-04-03T14:53:34.375Z,13.83
2019-04-03T14:55:18.058Z,12.63
2019-04-03T14:56:47.008Z,11.53
2019-04-03T14:58:21.788Z,14.07
2019-04-03T14:59:56.611Z,13.20
2019-04-03T15:01:31.390Z,14.07
2019-04-03T15:03:06.878Z,14.03
2019-04-03T15:04:42.072Z,15.67
2019-04-03T15:06:16.984Z,13.40
2019-04-03T15:07:51.760Z,13.40
2019-04-03T15:09:27.858Z,14.03
2019-04-03T15:11:03.833Z,14.37
2019-04-03T15:12:40.099Z,17.23
2019-04-03T15:14:15.464Z,17.67
2019-04-03T15:15:50.242Z,12.97
2019-04-03T15:17:25.021Z,15.80
2019-04-03T15:19:01.891Z,13.03
2019-04-03T15:20:37.225Z,14.50
2019-04-03T15:22:12.367Z,18.33
2019-04-03T15:23:47.500Z,15.40
2019-04-03T15:25:22.641Z,15.43
2019-04-03T15:26:57.672Z,16.47
2019-04-03T15:28:32.459Z,16.90
2019-04-03T15:30:10.839Z,14.13
2019-04-03T15:31:46.854Z,17.23
2019-04-03T15:33:24.702Z,14.80
2019-04-03T15:35:00.293Z,13.67
2019-04-03T15:36:36.362Z,14.33
2019-04-03T15:38:13.291Z,17.50
2019-04-03T15:39:54.383Z,17.70
2019-04-03T15:41:27.789Z,15.30
2019-04-03T15:43:01.539Z,16.20
2019-04-03T15:44:36.555Z,16.07
2019-04-03T15:46:11.400Z,14.93
2019-04-03T15:47:47.831Z,14.97
2019-04-03T15:49:25.634Z,12.83
2019-04-03T15:50:59.254Z,12.93
2019-04-03T15:52:34.038Z,16.37
2019-04-03T15:54:09.089Z,12.50
2019-04-03T15:55:43.470Z,15.43
2019-04-03T15:57:20.154Z,14.33
2019-04-03T15:58:55.028Z,15.83
2019-04-03T16:00:33.659Z,14.47
2019-04-03T16:02:09.036Z,13.63
2019-04-03T16:03:44.746Z,16.93
2019-04-03T16:05:20.142Z,14.43
2019-04-03T16:06:55.506Z,14.10
2019-04-03T16:08:30.270Z,14.60
2019-04-03T16:10:06.056Z,17.60
2019-04-03T16:11:41.583Z,15.33
2019-04-03T16:13:16.533Z,14.43
2019-04-03T16:14:51.909Z,15.50
2019-04-03T16:16:28.434Z,16.43
2019-04-03T16:18:05.856Z,13.67
2019-04-03T16:19:42.314Z,16.33
2019-04-03T16:21:16.454Z,17.60
2019-04-03T16:22:51.590Z,14.80
2019-04-03T16:24:26.177Z,13.30
2019-04-03T16:26:00.638Z,14.57
2019-04-03T16:27:35.636Z,17.57
2019-04-03T16:29:10.844Z,13.80
2019-04-03T16:30:48.750Z,14.47
2019-04-03T16:32:22.130Z,16.53
2019-04-03T16:33:57.174Z,14.00
2019-04-03T16:35:32.458Z,16.20
2019-04-03T16:37:07.465Z,16.20
2019-04-03T16:38:42.538Z,13.70
2019-04-03T16:40:18.079Z,14.07
2019-04-03T16:41:52.577Z,17.43
2019-04-03T16:43:26.952Z,14.47
2019-04-03T16:45:04.751Z,17.63
2019-04-03T16:46:39.887Z,12.30
2019-04-03T16:48:16.878Z,18.10
2019-04-03T16:49:54.588Z,15.10
2019-04-03T16:51:29.208Z,19.43
2019-04-03T16:53:05.639Z,15.27
2019-04-03T16:54:44.396Z,15.43
2019-04-03T16:56:18.961Z,16.77
2019-04-03T16:57:55.267Z,16.77
2019-04-03T16:59:30.340Z,21.33
2019-04-03T17:01:05.687Z,15.27
2019-04-03T17:02:40.543Z,17.90
2019-04-03T17:04:25.625Z,15.93
2019-04-03T17:05:52.114Z,18.80
2019-04-03T17:07:26.941Z,15.30
2019-04-03T17:09:02.414Z,19.73
2019-04-03T17:10:36.936Z,16.97
2019-04-03T17:12:11.301Z,16.13
2019-04-03T17:13:46.396Z,19.20
2019-04-03T17:15:20.993Z,17.70
2019-04-03T17:16:55.372Z,18.57
2019-04-03T17:18:30.037Z,17.33
2019-04-03T17:20:05.564Z,19.03
2019-04-03T17:21:40.401Z,19.33
2019-04-03T17:23:15.282Z,17.73
2019-04-03T17:24:54.000Z,19.37
2019-04-03T17:26:27.294Z,18.73
2019-04-03T17:28:07.581Z,17.37
2019-04-03T17:29:37.727Z,15.90
2019-04-03T17:31:12.801Z,19.73
2019-04-03T17:32:47.390Z,20.13
2019-04-03T17:34:22.094Z,15.73
2019-04-03T17:35:56.453Z,18.33
2019-04-03T17:37:31.824Z,21.10
2019-04-03T17:39:08.861Z,16.37
2019-04-03T17:40:43.388Z,20.50
2019-04-03T17:42:17.802Z,18.73
2019-04-03T17:43:52.446Z,18.77
2019-04-03T17:45:26.868Z,22.07
2019-04-03T17:47:01.222Z,18.80
2019-04-03T17:48:35.609Z,18.27
2019-04-03T17:50:10.178Z,21.37
2019-04-03T17:51:44.918Z,18.23
2019-04-03T17:53:19.517Z,20.57
2019-04-03T17:54:53.900Z,19.23
2019-04-03T17:56:28.250Z,20.67
2019-04-03T17:58:02.649Z,17.97
2019-04-03T17:59:37.016Z,19.00
2019-04-03T18:01:11.485Z,18.87
2019-04-03T18:02:46.131Z,19.10
2019-04-03T18:04:20.793Z,19.70
2019-04-03T18:05:56.992Z,20.07
2019-04-03T18:07:31.569Z,18.43
2019-04-03T18:09:08.863Z,18.53
2019-04-03T18:10:43.634Z,21.63
2019-04-03T18:12:21.124Z,19.87
2019-04-03T18:13:54.980Z,20.17
2019-04-03T18:15:32.773Z,19.17
2019-04-03T18:17:06.853Z,21.87
2019-04-03T18:18:41.672Z,23.43
2019-04-03T18:20:16.502Z,22.33
2019-04-03T18:21:50.874Z,22.67
2019-04-03T18:23:25.270Z,18.60
2019-04-03T18:24:59.656Z,17.83
2019-04-03T18:26:34.182Z,16.83
2019-04-03T18:28:08.602Z,23.53
2019-04-03T18:29:44.778Z,21.40
2019-04-03T18:31:19.633Z,19.83
2019-04-03T18:32:53.992Z,22.63
2019-04-03T18:34:28.398Z,21.97
2019-04-03T18:36:03.042Z,18.83
2019-04-03T18:37:40.666Z,22.70
2019-04-03T18:39:14.406Z,25.83
2019-04-03T18:40:49.571Z,21.43
2019-04-03T18:42:24.746Z,20.87
2019-04-03T18:43:59.531Z,18.50
2019-04-03T18:45:34.397Z,22.23
2019-04-03T18:47:08.913Z,22.80
2019-04-03T18:48:52.917Z,19.43
2019-04-03T18:51:05.494Z,21.43
2019-04-03T18:52:39.561Z,17.87
2019-04-03T18:54:14.021Z,27.03
2019-04-03T18:55:48.469Z,22.70
2019-04-03T18:57:22.833Z,20.53
2019-04-03T18:58:57.212Z,22.77
2019-04-03T19:00:31.927Z,25.33
2019-04-03T19:02:06.778Z,20.40
2019-04-03T19:03:41.145Z,21.43
2019-04-03T19:05:15.881Z,22.73
2019-04-03T19:06:50.838Z,22.00
2019-04-03T19:08:25.380Z,19.23
2019-04-03T19:10:07.099Z,23.43
2019-04-03T19:11:35.827Z,20.57
2019-04-03T19:13:13.729Z,19.20
2019-04-03T19:14:46.962Z,20.17
2019-04-03T19:16:29.328Z,25.70
2019-04-03T19:18:00.338Z,22.10
2019-04-03T19:19:34.331Z,21.13
2019-04-03T19:21:23.712Z,19.57
2019-04-03T19:22:45.116Z,26.80
2019-04-03T19:24:19.495Z,22.20
2019-04-03T19:25:53.889Z,21.13
2019-04-03T19:27:28.624Z,21.23
2019-04-03T19:29:04.752Z,20.40
2019-04-03T19:30:39.094Z,22.77
2019-04-03T19:32:13.591Z,21.60
2019-04-03T19:33:48.526Z,18.97
2019-04-03T19:35:23.038Z,26.60
2019-04-03T19:36:57.481Z,18.23
2019-04-03T19:38:31.879Z,21.63
2019-04-03T19:40:08.969Z,22.33
2019-04-03T19:41:43.310Z,24.93
2019-04-03T19:43:17.813Z,21.80
2019-04-03T19:44:52.255Z,21.47
2019-04-03T19:46:26.745Z,23.70
2019-04-03T19:48:01.110Z,21.20
2019-04-03T19:49:35.477Z,23.97
2019-04-03T19:51:09.906Z,22.17
2019-04-03T19:52:44.269Z,24.40
2019-04-03T19:54:18.821Z,21.80
2019-04-03T19:55:54.796Z,27.93
2019-04-03T19:57:29.974Z,21.17
2019-04-03T19:59:05.000Z,20.20
2019-04-03T20:00:39.457Z,20.57
2019-04-03T20:02:14.082Z,19.73
2019-04-03T20:03:48.736Z,22.00
2019-04-03T20:05:23.568Z,23.07
2019-04-03T20:06:57.941Z,21.63
2019-04-03T20:08:32.600Z,22.17
2019-04-03T20:10:08.915Z,19.97
2019-04-03T20:11:43.896Z,22.97
2019-04-03T20:13:18.633Z,20.03
2019-04-03T20:14:58.251Z,25.60
2019-04-03T20:16:29.386Z,22.73
2019-04-03T20:18:03.754Z,23.10
2019-04-03T20:19:38.623Z,23.07
2019-04-03T20:21:15.235Z,23.87
2019-04-03T20:22:49.566Z,20.30
2019-04-03T20:24:25.369Z,24.20
2019-04-03T20:26:00.088Z,16.83
2019-04-03T20:27:34.659Z,19.73